createdAt,value
2018-08-30T00:01:11.715Z,22.43
2018-08-30T00:03:40.532Z,22.44
2018-08-30T00:06:09.103Z,22.44
2018-08-30T00:08:37.656Z,22.42
2018-08-30T00:11:06.271Z,22.33
2018-08-30T00:13:34.963Z,22.39
2018-08-30T00:16:03.511Z,22.35
2018-08-30T00:18:32.797Z,22.32
2018-08-30T00:21:01.944Z,22.30
2018-08-30T00:23:31.001Z,22.11
2018-08-30T00:26:00.279Z,22.15
2018-08-30T00:28:29.482Z,22.16
2018-08-30T00:30:58.413Z,22.13
2018-08-30T00:33:27.185Z,22.18
2018-08-30T00:35:55.885Z,22.11
2018-08-30T00:38:24.476Z,22.13
2018-08-30T00:40:53.367Z,22.10
2018-08-30T00:43:21.928Z,22.11
2018-08-30T00:45:50.628Z,22.14
2018-08-30T00:48:19.291Z,22.13
2018-08-30T00:50:47.859Z,22.15
2018-08-30T00:53:16.405Z,22.04
2018-08-30T00:55:45.223Z,22.04
2018-08-30T00:58:13.781Z,22.07
2018-08-30T01:00:42.371Z,22.00
2018-08-30T01:03:10.965Z,22.01
2018-08-30T01:05:39.707Z,21.95
2018-08-30T01:08:08.248Z,21.89
2018-08-30T01:10:36.858Z,21.95
2018-08-30T01:13:05.454Z,21.94
2018-08-30T01:15:34.040Z,21.92
2018-08-30T01:18:02.861Z,21.88
2018-08-30T01:20:31.419Z,21.87
2018-08-30T01:23:00.012Z,21.85
2018-08-30T01:25:28.903Z,21.80
2018-08-30T01:27:57.436Z,21.74
2018-08-30T01:30:26.037Z,21.68
2018-08-30T01:32:54.627Z,21.72
2018-08-30T01:35:23.192Z,21.69
2018-08-30T01:37:51.775Z,21.72
2018-08-30T01:40:20.521Z,21.70
2018-08-30T01:42:49.070Z,21.56
2018-08-30T01:45:17.627Z,21.46
2018-08-30T01:47:46.435Z,21.44
2018-08-30T01:50:15.107Z,21.43
2018-08-30T01:52:43.668Z,21.33
2018-08-30T01:55:12.618Z,21.17
2018-08-30T01:57:41.160Z,21.11
2018-08-30T02:00:09.759Z,21.06
2018-08-30T02:02:38.343Z,21.07
2018-08-30T02:05:07.009Z,20.87
2018-08-30T02:07:35.578Z,20.93
2018-08-30T02:10:04.676Z,20.86
2018-08-30T02:12:33.233Z,20.87
2018-08-30T02:15:01.812Z,20.86
2018-08-30T02:17:30.523Z,20.84
2018-08-30T02:19:59.063Z,20.77
2018-08-30T02:22:27.632Z,20.73
2018-08-30T02:24:56.275Z,20.68
2018-08-30T02:27:24.824Z,20.71
2018-08-30T02:29:53.423Z,20.77
2018-08-30T02:32:22.076Z,20.76
2018-08-30T02:34:50.632Z,20.75
2018-08-30T02:37:19.194Z,20.75
2018-08-30T02:39:47.899Z,20.78
2018-08-30T02:42:16.474Z,20.72
2018-08-30T02:44:45.019Z,20.73
2018-08-30T02:47:13.929Z,20.77
2018-08-30T02:49:42.504Z,20.71
2018-08-30T02:52:11.068Z,20.62
2018-08-30T02:54:39.996Z,20.54
2018-08-30T02:57:08.676Z,20.59
2018-08-30T02:59:37.250Z,20.49
2018-08-30T03:02:06.091Z,20.52
2018-08-30T03:04:34.668Z,20.56
2018-08-30T03:07:03.230Z,20.49
2018-08-30T03:09:32.063Z,20.34
2018-08-30T03:12:00.639Z,20.36
2018-08-30T03:14:29.222Z,20.38
2018-08-30T03:16:58.132Z,20.38
2018-08-30T03:19:26.699Z,20.36
2018-08-30T03:21:55.255Z,20.43
2018-08-30T03:24:23.827Z,20.38
2018-08-30T03:26:52.383Z,20.39
2018-08-30T03:29:20.928Z,20.36
2018-08-30T03:31:49.503Z,20.37
2018-08-30T03:34:18.048Z,20.34
2018-08-30T03:36:46.605Z,20.29
2018-08-30T03:39:15.259Z,20.22
2018-08-30T03:41:43.828Z,20.17
2018-08-30T03:44:12.443Z,20.16
2018-08-30T03:46:41.100Z,20.10
2018-08-30T03:49:09.648Z,20.08
2018-08-30T03:51:38.196Z,20.05
2018-08-30T03:54:06.912Z,20.08
2018-08-30T03:56:35.471Z,20.01
2018-08-30T03:59:04.024Z,20.01
2018-08-30T04:01:32.697Z,20.04
2018-08-30T04:04:01.239Z,19.94
2018-08-30T04:06:29.787Z,20.02
2018-08-30T04:08:58.367Z,20.04
2018-08-30T04:11:27.115Z,19.95
2018-08-30T04:13:55.667Z,20.03
2018-08-30T04:16:24.623Z,20.10
2018-08-30T04:18:59.155Z,20.17
2018-08-30T04:21:27.771Z,20.19
2018-08-30T04:23:56.567Z,20.21
2018-08-30T04:26:25.202Z,20.19
2018-08-30T04:28:53.767Z,20.20
2018-08-30T04:31:22.303Z,20.25
2018-08-30T04:33:50.948Z,20.27
2018-08-30T04:36:19.587Z,20.27
2018-08-30T04:38:48.167Z,20.26
2018-08-30T04:41:16.707Z,20.20
2018-08-30T04:43:45.275Z,20.17
2018-08-30T04:46:13.820Z,20.09
2018-08-30T04:48:42.563Z,20.12
2018-08-30T04:51:11.163Z,20.16
2018-08-30T04:53:39.739Z,20.17
2018-08-30T04:56:08.293Z,20.17
2018-08-30T04:58:36.883Z,20.21
2018-08-30T05:01:05.561Z,20.23
2018-08-30T05:03:34.118Z,20.23
2018-08-30T05:06:02.867Z,20.24
2018-08-30T05:08:31.423Z,20.25
2018-08-30T05:11:00.036Z,20.24
2018-08-30T05:13:28.991Z,20.10
2018-08-30T05:15:57.551Z,20.18
2018-08-30T05:18:26.115Z,20.16
2018-08-30T05:20:55.051Z,20.13
2018-08-30T05:23:23.589Z,20.18
2018-08-30T05:25:52.132Z,20.18
2018-08-30T05:31:26.355Z,20.10
2018-08-30T05:33:55.047Z,19.98
2018-08-30T05:36:23.599Z,20.01
2018-08-30T05:38:52.214Z,19.97
2018-08-30T05:41:20.935Z,19.99
2018-08-30T05:43:49.494Z,19.96
2018-08-30T05:46:18.051Z,19.96
2018-08-30T05:48:46.970Z,19.94
2018-08-30T05:51:15.516Z,19.96
2018-08-30T05:53:44.064Z,20.00
2018-08-30T05:56:12.804Z,19.89
2018-08-30T05:58:41.371Z,19.91
2018-08-30T06:01:09.992Z,19.89
2018-08-30T06:03:38.572Z,19.91
2018-08-30T06:06:07.196Z,19.99
2018-08-30T06:08:35.743Z,20.08
2018-08-30T06:11:04.737Z,20.00
2018-08-30T06:13:33.287Z,19.93
2018-08-30T06:16:01.863Z,19.80
2018-08-30T06:18:30.535Z,19.63
2018-08-30T06:20:59.091Z,19.40
2018-08-30T06:23:27.664Z,19.35
2018-08-30T06:25:56.455Z,19.29
2018-08-30T06:28:25.024Z,19.31
2018-08-30T06:30:53.588Z,19.26
2018-08-30T06:33:22.183Z,19.26
2018-08-30T06:35:50.747Z,19.28
2018-08-30T06:38:19.347Z,19.29
2018-08-30T06:40:48.247Z,19.27
2018-08-30T06:43:16.807Z,19.14
2018-08-30T06:45:45.355Z,19.04
2018-08-30T06:48:14.200Z,18.99
2018-08-30T06:50:42.752Z,18.97
2018-08-30T06:53:11.327Z,19.02
2018-08-30T06:55:40.035Z,19.07
2018-08-30T06:58:08.588Z,19.14
2018-08-30T07:00:37.172Z,19.21
2018-08-30T07:03:06.375Z,19.25
2018-08-30T07:05:34.955Z,19.26
2018-08-30T07:08:03.545Z,19.28
2018-08-30T07:10:32.149Z,19.35
2018-08-30T07:13:00.715Z,19.41
2018-08-30T07:15:29.365Z,19.41
2018-08-30T07:17:57.988Z,19.52
2018-08-30T07:20:26.548Z,20.22
2018-08-30T07:22:55.110Z,21.03
2018-08-30T07:25:23.779Z,21.50
2018-08-30T07:27:52.360Z,21.62
2018-08-30T07:30:20.915Z,21.39
2018-08-30T07:32:49.579Z,21.43
2018-08-30T07:35:18.128Z,21.88
2018-08-30T07:37:46.675Z,21.70
2018-08-30T07:40:15.395Z,21.59
2018-08-30T07:42:43.948Z,21.54
2018-08-30T07:45:12.482Z,21.41
2018-08-30T07:47:41.062Z,21.31
2018-08-30T07:50:09.631Z,21.26
2018-08-30T07:52:38.168Z,21.16
2018-08-30T07:55:07.027Z,21.07
2018-08-30T07:57:35.686Z,21.08
2018-08-30T08:00:04.514Z,21.03
2018-08-30T08:02:33.131Z,20.98
2018-08-30T08:05:01.676Z,20.93
2018-08-30T08:07:30.288Z,20.83
2018-08-30T08:09:59.654Z,20.76
2018-08-30T08:12:28.213Z,20.71
2018-08-30T08:14:56.759Z,20.76
2018-08-30T08:17:25.360Z,20.76
2018-08-30T08:19:54.011Z,20.75
2018-08-30T08:22:22.623Z,20.73
2018-08-30T08:24:51.351Z,20.74
2018-08-30T08:27:19.873Z,20.75
2018-08-30T08:29:48.419Z,20.79
2018-08-30T08:32:17.124Z,20.83
2018-08-30T08:34:45.663Z,20.82
2018-08-30T08:37:14.323Z,20.96
2018-08-30T08:39:42.992Z,21.01
2018-08-30T08:42:11.551Z,21.01
2018-08-30T08:44:40.111Z,20.96
2018-08-30T08:47:09.039Z,20.93
2018-08-30T08:49:38.320Z,20.90
2018-08-30T08:52:06.919Z,20.89
2018-08-30T08:54:35.623Z,20.80
2018-08-30T08:57:04.197Z,20.78
2018-08-30T08:59:32.739Z,20.93
2018-08-30T09:02:01.339Z,21.19
2018-08-30T09:04:29.891Z,21.99
2018-08-30T09:06:58.481Z,23.02
2018-08-30T09:09:27.071Z,24.07
2018-08-30T09:11:55.616Z,24.78
2018-08-30T09:14:24.182Z,24.84
2018-08-30T09:16:53.035Z,24.44
2018-08-30T09:19:21.591Z,24.05
2018-08-30T09:21:50.152Z,24.73
2018-08-30T09:24:19.379Z,25.19
2018-08-30T09:26:47.997Z,24.71
2018-08-30T09:29:16.516Z,24.32
2018-08-30T09:31:45.112Z,24.16
2018-08-30T09:34:13.693Z,24.84
2018-08-30T09:36:42.312Z,25.04
2018-08-30T09:39:10.996Z,24.92
2018-08-30T09:41:39.579Z,25.37
2018-08-30T09:44:08.173Z,25.88
2018-08-30T09:46:37.184Z,25.90
2018-08-30T09:49:06.223Z,25.72
2018-08-30T09:51:34.827Z,24.93
2018-08-30T09:54:03.500Z,24.56
2018-08-30T09:56:32.060Z,24.20
2018-08-30T09:59:00.608Z,24.09
2018-08-30T10:01:34.607Z,23.96
2018-08-30T10:04:03.176Z,24.52
2018-08-30T10:06:31.761Z,24.23
2018-08-30T10:09:01.107Z,23.87
2018-08-30T10:11:29.674Z,23.80
2018-08-30T10:13:58.232Z,23.78
2018-08-30T10:16:27.163Z,23.70
2018-08-30T10:18:55.761Z,23.68
2018-08-30T10:21:24.361Z,23.50
2018-08-30T10:23:53.075Z,23.23
2018-08-30T10:26:21.660Z,23.06
2018-08-30T10:28:50.220Z,22.82
2018-08-30T10:31:18.951Z,23.15
2018-08-30T10:33:47.479Z,23.38
2018-08-30T10:36:16.032Z,23.51
2018-08-30T10:38:44.716Z,23.15
2018-08-30T10:41:13.275Z,23.17
2018-08-30T10:43:41.827Z,23.09
2018-08-30T10:46:10.491Z,23.46
2018-08-30T10:48:39.078Z,24.83
2018-08-30T10:51:07.675Z,24.47
2018-08-30T10:53:36.622Z,24.08
2018-08-30T10:56:05.242Z,23.86
2018-08-30T10:58:33.876Z,24.03
2018-08-30T11:01:02.555Z,24.88
2018-08-30T11:03:31.231Z,25.62
2018-08-30T11:05:59.804Z,25.45
2018-08-30T11:08:28.760Z,25.47
2018-08-30T11:10:57.296Z,25.48
2018-08-30T11:13:25.924Z,25.69
2018-08-30T11:15:54.531Z,25.76
2018-08-30T11:18:23.114Z,25.20
2018-08-30T11:20:51.683Z,24.76
2018-08-30T11:23:20.685Z,24.86
2018-08-30T11:25:49.235Z,24.44
2018-08-30T11:28:17.780Z,24.11
2018-08-30T11:30:46.451Z,23.89
2018-08-30T11:33:15.017Z,24.16
2018-08-30T11:35:43.580Z,24.68
2018-08-30T11:38:12.224Z,24.51
2018-08-30T11:40:40.811Z,24.29
2018-08-30T11:43:09.409Z,24.20
2018-08-30T11:45:38.198Z,24.48
2018-08-30T11:48:06.828Z,24.86
2018-08-30T11:50:35.379Z,24.74
2018-08-30T11:53:04.045Z,24.51
2018-08-30T11:55:32.611Z,24.88
2018-08-30T11:58:01.164Z,25.11
2018-08-30T12:00:29.975Z,25.55
2018-08-30T12:02:59.407Z,25.91
2018-08-30T12:05:27.972Z,25.64
2018-08-30T12:07:57.793Z,25.20
2018-08-30T12:10:26.729Z,25.05
2018-08-30T12:12:55.259Z,24.77
2018-08-30T12:15:23.906Z,24.66
2018-08-30T12:17:52.496Z,24.84
2018-08-30T12:20:21.075Z,25.00
2018-08-30T12:22:49.781Z,25.02
2018-08-30T12:25:18.333Z,25.00
2018-08-30T12:27:46.896Z,24.95
2018-08-30T12:30:15.735Z,25.21
2018-08-30T12:32:44.370Z,25.42
2018-08-30T12:35:12.979Z,25.60
2018-08-30T12:37:41.573Z,25.39
2018-08-30T12:40:10.240Z,25.40
2018-08-30T12:42:39.026Z,25.38
2018-08-30T12:45:08.011Z,25.43
2018-08-30T12:47:36.839Z,25.49
2018-08-30T12:50:06.036Z,25.15
2018-08-30T12:52:34.727Z,24.99
2018-08-30T12:55:03.344Z,24.93
2018-08-30T12:57:31.829Z,25.02
2018-08-30T13:00:00.485Z,25.19
2018-08-30T13:02:29.086Z,25.16
2018-08-30T13:04:57.734Z,25.31
2018-08-30T13:07:26.346Z,25.37
2018-08-30T13:09:55.472Z,25.31
2018-08-30T13:12:24.123Z,25.31
2018-08-30T13:14:52.753Z,25.08
2018-08-30T13:17:21.240Z,25.04
2018-08-30T13:19:50.054Z,25.07
2018-08-30T13:22:18.617Z,25.13
2018-08-30T13:24:47.163Z,25.23
2018-08-30T13:27:15.850Z,25.18
2018-08-30T13:29:44.595Z,25.14
2018-08-30T13:32:13.348Z,25.00
2018-08-30T13:34:41.903Z,25.08
2018-08-30T13:37:10.531Z,24.89
2018-08-30T13:39:39.276Z,24.83
2018-08-30T13:42:07.895Z,24.71
2018-08-30T13:44:36.549Z,24.66
2018-08-30T13:47:05.351Z,24.75
2018-08-30T13:49:33.587Z,24.84
2018-08-30T13:52:02.518Z,24.68
2018-08-30T13:54:31.092Z,24.53
2018-08-30T13:56:59.680Z,24.50
2018-08-30T13:59:28.737Z,24.31
2018-08-30T14:01:57.082Z,24.54
2018-08-30T14:04:25.658Z,24.62
2018-08-30T14:06:54.299Z,24.42
2018-08-30T14:09:22.906Z,24.24
2018-08-30T14:11:51.605Z,24.09
2018-08-30T14:14:20.308Z,24.03
2018-08-30T14:16:48.702Z,24.14
2018-08-30T14:19:17.819Z,24.48
2018-08-30T14:21:46.634Z,24.58
2018-08-30T14:24:15.222Z,24.77
2018-08-30T14:26:43.776Z,24.82
2018-08-30T14:29:12.452Z,24.76
2018-08-30T14:31:41.003Z,25.00
2018-08-30T14:34:09.672Z,24.98
2018-08-30T14:36:38.372Z,25.00
2018-08-30T14:39:08.623Z,24.96
2018-08-30T14:41:37.218Z,24.74
2018-08-30T14:44:05.912Z,24.62
2018-08-30T14:46:34.886Z,24.69
2018-08-30T14:49:03.944Z,24.73
2018-08-30T14:51:32.584Z,24.53
2018-08-30T14:54:01.351Z,24.55
2018-08-30T14:56:29.826Z,24.72
2018-08-30T14:58:58.412Z,24.68
2018-08-30T15:01:26.974Z,24.66
2018-08-30T15:03:55.531Z,24.70
2018-08-30T15:06:24.126Z,24.49
2018-08-30T15:08:52.679Z,24.47
2018-08-30T15:11:21.279Z,24.47
2018-08-30T15:13:49.823Z,24.52
2018-08-30T15:16:18.433Z,24.50
2018-08-30T15:18:47.134Z,24.49
2018-08-30T15:21:15.833Z,24.37
2018-08-30T15:23:44.511Z,24.25
2018-08-30T15:26:13.079Z,24.15
2018-08-30T15:28:41.704Z,24.00
2018-08-30T15:31:10.294Z,24.05
2018-08-30T15:33:39.110Z,24.05
2018-08-30T15:36:07.772Z,24.06
2018-08-30T15:38:36.338Z,23.91
2018-08-30T15:41:04.984Z,23.67
2018-08-30T15:43:33.594Z,23.70
2018-08-30T15:46:02.174Z,23.59
2018-08-30T15:48:30.744Z,23.58
2018-08-30T15:50:59.443Z,23.56
2018-08-30T15:53:28.008Z,23.51
2018-08-30T15:55:56.576Z,23.49
2018-08-30T15:58:25.177Z,23.46
2018-08-30T16:00:53.849Z,23.45
2018-08-30T16:03:22.412Z,23.39
2018-08-30T16:05:51.096Z,23.27
2018-08-30T16:08:19.672Z,23.12
2018-08-30T16:10:48.255Z,23.03
2018-08-30T16:13:17.293Z,23.06
2018-08-30T16:15:45.791Z,23.06
2018-08-30T16:18:14.376Z,23.11
2018-08-30T16:20:43.108Z,22.96
2018-08-30T16:23:33.432Z,22.90
2018-08-30T16:26:02.135Z,22.78
2018-08-30T16:28:31.834Z,22.75
2018-08-30T16:31:00.607Z,22.76
2018-08-30T16:33:29.440Z,22.66
2018-08-30T16:35:58.067Z,22.61
2018-08-30T16:38:26.806Z,22.49
2018-08-30T16:40:55.479Z,22.50
2018-08-30T16:43:24.036Z,22.44
2018-08-30T16:45:54.247Z,22.50
2018-08-30T16:48:22.874Z,22.47
2018-08-30T16:50:51.752Z,22.42
2018-08-30T16:53:20.475Z,22.45
2018-08-30T16:55:49.235Z,22.39
2018-08-30T16:58:17.790Z,22.39
2018-08-30T17:00:46.573Z,22.44
2018-08-30T17:03:15.556Z,22.47
2018-08-30T17:05:44.251Z,22.49
2018-08-30T17:08:12.844Z,22.37
2018-08-30T17:10:41.543Z,22.33
2018-08-30T17:13:10.127Z,22.22
2018-08-30T17:15:38.774Z,22.12
2018-08-30T17:18:07.880Z,22.11
2018-08-30T17:20:40.583Z,22.17
2018-08-30T17:23:09.480Z,22.07
2018-08-30T17:25:38.035Z,21.97
2018-08-30T17:28:06.639Z,21.93
2018-08-30T17:30:35.683Z,21.84
2018-08-30T17:33:04.263Z,21.75
2018-08-30T17:35:32.820Z,21.68
2018-08-30T17:38:01.477Z,21.69
2018-08-30T17:40:30.084Z,21.67
2018-08-30T17:42:58.658Z,21.63
2018-08-30T17:45:27.433Z,21.67
2018-08-30T17:47:55.976Z,21.65
2018-08-30T17:50:24.548Z,21.67
2018-08-30T17:52:53.231Z,21.64
2018-08-30T17:55:21.915Z,21.64
2018-08-30T17:57:50.480Z,21.51
2018-08-30T18:00:19.112Z,21.42
2018-08-30T18:02:48.204Z,21.39
2018-08-30T18:05:17.062Z,21.42
2018-08-30T18:07:45.807Z,21.39
2018-08-30T18:10:14.395Z,21.38
2018-08-30T18:12:42.942Z,21.31
2018-08-30T18:15:13.820Z,21.32
2018-08-30T18:17:42.525Z,21.32
2018-08-30T18:20:11.308Z,21.33
2018-08-30T18:22:39.976Z,21.32
2018-08-30T18:25:13.417Z,21.29
2018-08-30T18:27:44.217Z,21.28
2018-08-30T18:30:15.372Z,21.26
2018-08-30T18:32:47.105Z,21.23
2018-08-30T18:35:17.335Z,21.25
2018-08-30T18:37:49.823Z,21.24
2018-08-30T18:40:18.511Z,21.16
2018-08-30T18:42:47.096Z,21.10
2018-08-30T18:45:15.688Z,21.03
2018-08-30T18:47:44.236Z,21.00
2018-08-30T18:50:12.779Z,20.99
2018-08-30T18:52:41.811Z,20.92
2018-08-30T18:55:10.375Z,20.95
2018-08-30T18:57:38.931Z,20.92
2018-08-30T19:00:08.635Z,20.89
2018-08-30T19:02:37.252Z,20.88
2018-08-30T19:05:05.827Z,20.84
2018-08-30T19:07:34.427Z,20.84
2018-08-30T19:10:03.027Z,20.82
2018-08-30T19:12:31.712Z,20.80
2018-08-30T19:15:02.643Z,20.67
2018-08-30T19:17:36.500Z,20.62
2018-08-30T19:20:05.100Z,20.61
2018-08-30T19:22:33.670Z,20.60
2018-08-30T19:25:07.664Z,20.54
2018-08-30T19:27:36.265Z,20.46
2018-08-30T19:30:09.980Z,20.46
2018-08-30T19:32:38.536Z,20.42
2018-08-30T19:35:12.884Z,20.36
2018-08-30T19:37:42.019Z,20.30
2018-08-30T19:40:14.816Z,20.28
2018-08-30T19:42:43.652Z,20.24
2018-08-30T19:45:12.237Z,20.17
2018-08-30T19:47:40.904Z,20.14
2018-08-30T19:50:09.776Z,20.10
2018-08-30T19:52:39.294Z,20.03
2018-08-30T19:55:08.421Z,20.03
2018-08-30T19:57:37.144Z,19.96
2018-08-30T20:00:05.991Z,19.89
2018-08-30T20:02:34.785Z,19.93
2018-08-30T20:05:03.431Z,19.95
2018-08-30T20:07:32.124Z,19.96
2018-08-30T20:10:00.844Z,20.03
2018-08-30T20:12:29.594Z,19.96
2018-08-30T20:14:58.356Z,19.93
2018-08-30T20:17:26.955Z,19.83
2018-08-30T20:19:55.885Z,19.78
2018-08-30T20:22:24.515Z,19.73
2018-08-30T20:24:53.112Z,19.73
2018-08-30T20:27:21.707Z,19.82
2018-08-30T20:29:50.256Z,19.83
2018-08-30T20:32:18.924Z,19.77
2018-08-30T20:34:47.477Z,19.76
2018-08-30T20:37:16.034Z,19.72
2018-08-30T20:39:44.863Z,19.77
2018-08-30T20:42:13.909Z,19.79
2018-08-30T20:44:42.455Z,19.78
2018-08-30T20:47:11.044Z,19.77
2018-08-30T20:49:39.608Z,19.79
2018-08-30T20:52:08.683Z,19.78
2018-08-30T20:54:37.506Z,19.78
2018-08-30T20:57:06.224Z,19.73
2018-08-30T20:59:34.867Z,19.70
2018-08-30T21:02:03.716Z,19.68
2018-08-30T21:04:32.225Z,19.68
2018-08-30T21:07:00.801Z,19.68
2018-08-30T21:09:29.668Z,19.68
2018-08-30T21:11:58.228Z,19.65
2018-08-30T21:14:26.823Z,19.59
2018-08-30T21:16:55.744Z,19.58
2018-08-30T21:19:24.312Z,19.68
2018-08-30T21:21:53.068Z,19.65
2018-08-30T21:24:39.619Z,19.62
2018-08-30T21:27:08.699Z,19.57
2018-08-30T21:29:37.298Z,19.53
2018-08-30T21:32:06.072Z,19.49
2018-08-30T21:34:35.881Z,19.45
2018-08-30T21:37:04.471Z,19.45
2018-08-30T21:39:33.166Z,19.45
2018-08-30T21:42:01.732Z,19.44
2018-08-30T21:44:30.323Z,19.42
2018-08-30T21:46:58.879Z,19.38
2018-08-30T21:49:27.504Z,19.39
2018-08-30T21:51:56.159Z,19.40
2018-08-30T21:54:24.731Z,19.46
2018-08-30T21:56:53.484Z,19.49
2018-08-30T21:59:22.164Z,19.53
2018-08-30T22:01:50.719Z,19.58
2018-08-30T22:04:19.527Z,19.59
2018-08-30T22:06:48.206Z,19.59
2018-08-30T22:09:16.760Z,19.61
2018-08-30T22:11:45.495Z,19.49
2018-08-30T22:14:14.171Z,19.48
2018-08-30T22:16:42.719Z,19.51
2018-08-30T22:19:11.262Z,19.49
2018-08-30T22:21:39.959Z,19.57
2018-08-30T22:24:08.519Z,19.49
2018-08-30T22:26:37.307Z,19.45
2018-08-30T22:29:06.103Z,19.45
2018-08-30T22:31:34.672Z,19.44
2018-08-30T22:34:03.254Z,19.47
2018-08-30T22:36:31.928Z,19.50
2018-08-30T22:39:00.507Z,19.53
2018-08-30T22:41:29.087Z,19.56
2018-08-30T22:43:57.672Z,19.57
2018-08-30T22:46:26.242Z,19.59
2018-08-30T22:48:54.796Z,19.60
2018-08-30T22:51:23.495Z,19.57
2018-08-30T22:53:52.582Z,19.63
2018-08-30T22:56:21.762Z,19.66
2018-08-30T22:58:51.259Z,19.63
2018-08-30T23:01:20.397Z,19.64
2018-08-30T23:03:48.992Z,19.65
2018-08-30T23:06:17.693Z,19.68
2018-08-30T23:08:46.244Z,19.69
2018-08-30T23:11:14.800Z,19.70
2018-08-30T23:13:43.591Z,19.68
2018-08-30T23:16:12.231Z,19.72
2018-08-30T23:18:40.807Z,19.74
2018-08-30T23:21:09.427Z,19.73
2018-08-30T23:23:37.971Z,19.80
2018-08-30T23:26:06.592Z,19.79
2018-08-30T23:28:35.263Z,19.81
2018-08-30T23:31:03.824Z,19.75
2018-08-30T23:33:32.540Z,19.79
2018-08-30T23:36:01.136Z,19.77
2018-08-30T23:38:29.691Z,19.74
2018-08-30T23:40:58.251Z,19.77
2018-08-30T23:43:27.199Z,19.76
2018-08-30T23:45:55.776Z,19.76
2018-08-30T23:48:24.327Z,19.72
2018-08-30T23:50:53.339Z,19.79
2018-08-30T23:53:21.891Z,19.69
2018-08-30T23:55:50.467Z,19.69
2018-08-30T23:59:28.315Z,19.65
